sensor_id;sensor_type;location;lat;lon;timestamp;P1;durP1;ratioP1;P2;durP2;ratioP2
21806;SDS011;11065;50.786;7.840;2023-04-01T00:00:50;3.47;;;0.70;;
21806;SDS011;11065;50.786;7.840;2023-04-01T00:03:18;1.93;;;0.70;;
21806;SDS011;11065;50.786;7.840;2023-04-01T00:05:47;5.10;;;0.90;;
21806;SDS011;11065;50.786;7.840;2023-04-01T00:08:15;2.90;;;0.63;;
21806;SDS011;11065;50.786;7.840;2023-04-01T00:10:44;2.20;;;0.50;;
21806;SDS011;11065;50.786;7.840;2023-04-01T00:13:13;1.97;;;0.53;;
21806;SDS011;11065;50.786;7.840;2023-04-01T00:15:42;1.77;;;0.70;;
21806;SDS011;11065;50.786;7.840;2023-04-01T00:18:11;1.67;;;0.50;;
21806;SDS011;11065;50.786;7.840;2023-04-01T00:20:42;2.77;;;0.50;;
21806;SDS011;11065;50.786;7.840;2023-04-01T00:23:12;2.97;;;0.80;;
21806;SDS011;11065;50.786;7.840;2023-04-01T00:25:40;2.23;;;0.50;;
21806;SDS011;11065;50.786;7.840;2023-04-01T00:28:08;2.60;;;0.87;;
21806;SDS011;11065;50.786;7.840;2023-04-01T00:30:38;1.93;;;0.70;;
21806;SDS011;11065;50.786;7.840;2023-04-01T00:33:06;2.67;;;0.80;;
21806;SDS011;11065;50.786;7.840;2023-04-01T00:35:35;2.33;;;0.83;;
21806;SDS011;11065;50.786;7.840;2023-04-01T00:38:03;3.27;;;0.80;;
21806;SDS011;11065;50.786;7.840;2023-04-01T00:40:33;1.47;;;0.60;;
21806;SDS011;11065;50.786;7.840;2023-04-01T00:43:02;1.87;;;0.50;;
21806;SDS011;11065;50.786;7.840;2023-04-01T00:45:39;2.27;;;0.70;;
21806;SDS011;11065;50.786;7.840;2023-04-01T00:48:09;3.13;;;0.60;;
21806;SDS011;11065;50.786;7.840;2023-04-01T00:50:40;1.60;;;0.50;;
21806;SDS011;11065;50.786;7.840;2023-04-01T00:53:11;1.33;;;0.40;;
21806;SDS011;11065;50.786;7.840;2023-04-01T00:55:41;2.80;;;0.60;;
21806;SDS011;11065;50.786;7.840;2023-04-01T00:58:13;2.70;;;0.63;;
21806;SDS011;11065;50.786;7.840;2023-04-01T01:00:45;3.27;;;0.60;;
21806;SDS011;11065;50.786;7.840;2023-04-01T01:03:16;1.00;;;0.47;;
21806;SDS011;11065;50.786;7.840;2023-04-01T01:05:58;3.07;;;0.60;;
21806;SDS011;11065;50.786;7.840;2023-04-01T01:08:57;2.30;;;0.50;;
21806;SDS011;11065;50.786;7.840;2023-04-01T01:11:35;3.57;;;0.63;;
21806;SDS011;11065;50.786;7.840;2023-04-01T01:14:12;1.70;;;0.50;;
21806;SDS011;11065;50.786;7.840;2023-04-01T01:16:53;2.80;;;0.70;;
21806;SDS011;11065;50.786;7.840;2023-04-01T01:19:32;1.50;;;0.50;;
21806;SDS011;11065;50.786;7.840;2023-04-01T01:22:21;1.47;;;0.70;;
21806;SDS011;11065;50.786;7.840;2023-04-01T01:25:07;1.43;;;0.50;;
21806;SDS011;11065;50.786;7.840;2023-04-01T01:27:48;2.03;;;0.50;;
21806;SDS011;11065;50.786;7.840;2023-04-01T01:30:26;1.73;;;0.50;;
21806;SDS011;11065;50.786;7.840;2023-04-01T01:33:11;2.10;;;0.50;;
21806;SDS011;11065;50.786;7.840;2023-04-01T01:35:51;1.90;;;0.50;;
21806;SDS011;11065;50.786;7.840;2023-04-01T01:38:23;1.40;;;0.50;;
21806;SDS011;11065;50.786;7.840;2023-04-01T01:40:58;1.93;;;0.50;;
21806;SDS011;11065;50.786;7.840;2023-04-01T01:43:29;2.27;;;0.70;;
21806;SDS011;11065;50.786;7.840;2023-04-01T01:46:00;2.07;;;0.73;;
21806;SDS011;11065;50.786;7.840;2023-04-01T01:48:33;2.57;;;0.40;;
21806;SDS011;11065;50.786;7.840;2023-04-01T01:51:05;2.07;;;0.50;;
21806;SDS011;11065;50.786;7.840;2023-04-01T01:53:34;1.60;;;0.40;;
21806;SDS011;11065;50.786;7.840;2023-04-01T01:56:02;2.33;;;0.50;;
21806;SDS011;11065;50.786;7.840;2023-04-01T01:58:36;2.03;;;0.53;;
21806;SDS011;11065;50.786;7.840;2023-04-01T02:01:12;1.27;;;0.40;;
21806;SDS011;11065;50.786;7.840;2023-04-01T02:03:44;2.60;;;0.50;;
21806;SDS011;11065;50.786;7.840;2023-04-01T02:06:15;2.53;;;0.60;;
21806;SDS011;11065;50.786;7.840;2023-04-01T02:08:45;2.50;;;0.40;;
21806;SDS011;11065;50.786;7.840;2023-04-01T02:11:18;1.60;;;0.40;;
21806;SDS011;11065;50.786;7.840;2023-04-01T02:13:52;1.23;;;0.47;;
21806;SDS011;11065;50.786;7.840;2023-04-01T02:16:23;1.77;;;0.70;;
21806;SDS011;11065;50.786;7.840;2023-04-01T02:18:56;2.47;;;0.70;;
21806;SDS011;11065;50.786;7.840;2023-04-01T02:21:28;1.00;;;0.30;;
21806;SDS011;11065;50.786;7.840;2023-04-01T02:23:58;2.33;;;0.50;;
21806;SDS011;11065;50.786;7.840;2023-04-01T02:26:30;1.83;;;0.50;;
21806;SDS011;11065;50.786;7.840;2023-04-01T02:28:58;4.00;;;0.50;;
21806;SDS011;11065;50.786;7.840;2023-04-01T02:31:28;1.83;;;0.47;;
21806;SDS011;11065;50.786;7.840;2023-04-01T02:33:58;1.10;;;0.50;;
21806;SDS011;11065;50.786;7.840;2023-04-01T02:36:27;2.40;;;0.50;;
21806;SDS011;11065;50.786;7.840;2023-04-01T02:38:56;1.90;;;0.60;;
21806;SDS011;11065;50.786;7.840;2023-04-01T02:41:28;1.73;;;0.70;;
21806;SDS011;11065;50.786;7.840;2023-04-01T02:43:57;1.53;;;0.70;;
21806;SDS011;11065;50.786;7.840;2023-04-01T02:46:25;3.03;;;0.50;;
21806;SDS011;11065;50.786;7.840;2023-04-01T02:48:53;2.07;;;0.60;;
21806;SDS011;11065;50.786;7.840;2023-04-01T02:51:21;1.87;;;0.43;;
21806;SDS011;11065;50.786;7.840;2023-04-01T02:53:51;1.90;;;0.40;;
21806;SDS011;11065;50.786;7.840;2023-04-01T02:56:19;1.77;;;0.30;;
21806;SDS011;11065;50.786;7.840;2023-04-01T02:58:47;2.17;;;0.47;;
21806;SDS011;11065;50.786;7.840;2023-04-01T03:01:17;3.03;;;0.50;;
21806;SDS011;11065;50.786;7.840;2023-04-01T03:03:45;1.13;;;0.40;;
21806;SDS011;11065;50.786;7.840;2023-04-01T03:06:14;3.00;;;0.57;;
21806;SDS011;11065;50.786;7.840;2023-04-01T03:08:44;1.83;;;0.50;;
21806;SDS011;11065;50.786;7.840;2023-04-01T03:11:13;1.23;;;0.40;;
21806;SDS011;11065;50.786;7.840;2023-04-01T03:13:42;5.17;;;0.97;;
21806;SDS011;11065;50.786;7.840;2023-04-01T03:16:10;2.50;;;0.60;;
21806;SDS011;11065;50.786;7.840;2023-04-01T03:18:38;3.13;;;0.60;;
21806;SDS011;11065;50.786;7.840;2023-04-01T03:21:13;3.23;;;0.47;;
21806;SDS011;11065;50.786;7.840;2023-04-01T03:23:43;1.10;;;0.33;;
21806;SDS011;11065;50.786;7.840;2023-04-01T03:26:12;2.70;;;0.57;;
21806;SDS011;11065;50.786;7.840;2023-04-01T03:28:42;1.80;;;0.50;;
21806;SDS011;11065;50.786;7.840;2023-04-01T03:31:10;1.63;;;0.70;;
21806;SDS011;11065;50.786;7.840;2023-04-01T03:33:45;2.33;;;0.60;;
21806;SDS011;11065;50.786;7.840;2023-04-01T03:36:14;4.23;;;0.57;;
21806;SDS011;11065;50.786;7.840;2023-04-01T03:38:42;1.93;;;0.33;;
21806;SDS011;11065;50.786;7.840;2023-04-01T03:41:17;1.67;;;0.40;;
21806;SDS011;11065;50.786;7.840;2023-04-01T03:43:46;2.63;;;0.60;;
21806;SDS011;11065;50.786;7.840;2023-04-01T03:46:16;1.10;;;0.30;;
21806;SDS011;11065;50.786;7.840;2023-04-01T03:48:45;2.70;;;0.50;;
21806;SDS011;11065;50.786;7.840;2023-04-01T03:51:13;0.80;;;0.40;;
21806;SDS011;11065;50.786;7.840;2023-04-01T03:53:41;2.80;;;0.40;;
21806;SDS011;11065;50.786;7.840;2023-04-01T03:56:09;0.90;;;0.37;;
21806;SDS011;11065;50.786;7.840;2023-04-01T03:58:39;1.03;;;0.40;;
21806;SDS011;11065;50.786;7.840;2023-04-01T04:01:15;2.53;;;0.37;;
21806;SDS011;11065;50.786;7.840;2023-04-01T04:03:45;1.57;;;0.40;;
21806;SDS011;11065;50.786;7.840;2023-04-01T04:06:16;1.43;;;0.47;;
21806;SDS011;11065;50.786;7.840;2023-04-01T04:08:46;1.40;;;0.37;;
21806;SDS011;11065;50.786;7.840;2023-04-01T04:11:15;1.03;;;0.40;;
21806;SDS011;11065;50.786;7.840;2023-04-01T04:13:45;1.13;;;0.30;;
21806;SDS011;11065;50.786;7.840;2023-04-01T04:16:15;1.73;;;0.50;;
21806;SDS011;11065;50.786;7.840;2023-04-01T04:18:48;1.00;;;0.40;;
21806;SDS011;11065;50.786;7.840;2023-04-01T04:21:17;2.20;;;0.43;;
21806;SDS011;11065;50.786;7.840;2023-04-01T04:23:45;2.80;;;0.40;;
21806;SDS011;11065;50.786;7.840;2023-04-01T04:26:15;2.10;;;0.50;;
21806;SDS011;11065;50.786;7.840;2023-04-01T04:28:53;1.57;;;0.30;;
21806;SDS011;11065;50.786;7.840;2023-04-01T04:31:22;1.77;;;0.33;;
21806;SDS011;11065;50.786;7.840;2023-04-01T04:33:54;2.27;;;0.63;;
21806;SDS011;11065;50.786;7.840;2023-04-01T04:36:22;1.07;;;0.27;;
21806;SDS011;11065;50.786;7.840;2023-04-01T04:38:51;1.90;;;0.50;;
21806;SDS011;11065;50.786;7.840;2023-04-01T04:41:20;1.83;;;0.40;;
21806;SDS011;11065;50.786;7.840;2023-04-01T04:43:49;1.23;;;0.40;;
21806;SDS011;11065;50.786;7.840;2023-04-01T04:46:21;1.87;;;0.70;;
21806;SDS011;11065;50.786;7.840;2023-04-01T04:48:56;1.50;;;0.47;;
21806;SDS011;11065;50.786;7.840;2023-04-01T04:51:24;1.37;;;0.40;;
21806;SDS011;11065;50.786;7.840;2023-04-01T04:53:53;1.20;;;0.37;;
21806;SDS011;11065;50.786;7.840;2023-04-01T04:56:31;0.83;;;0.30;;
21806;SDS011;11065;50.786;7.840;2023-04-01T04:59:05;0.87;;;0.30;;
21806;SDS011;11065;50.786;7.840;2023-04-01T05:01:42;1.50;;;0.40;;
21806;SDS011;11065;50.786;7.840;2023-04-01T05:04:10;2.00;;;0.40;;
21806;SDS011;11065;50.786;7.840;2023-04-01T05:06:38;2.27;;;0.40;;
21806;SDS011;11065;50.786;7.840;2023-04-01T05:09:06;3.07;;;0.70;;
21806;SDS011;11065;50.786;7.840;2023-04-01T05:11:35;1.60;;;0.50;;
21806;SDS011;11065;50.786;7.840;2023-04-01T05:14:03;1.13;;;0.30;;
21806;SDS011;11065;50.786;7.840;2023-04-01T05:16:33;1.30;;;0.40;;
21806;SDS011;11065;50.786;7.840;2023-04-01T05:19:01;2.47;;;0.40;;
21806;SDS011;11065;50.786;7.840;2023-04-01T05:21:30;1.17;;;0.30;;
21806;SDS011;11065;50.786;7.840;2023-04-01T05:23:59;0.70;;;0.30;;
21806;SDS011;11065;50.786;7.840;2023-04-01T05:26:30;1.07;;;0.30;;
21806;SDS011;11065;50.786;7.840;2023-04-01T05:28:58;1.40;;;0.30;;
21806;SDS011;11065;50.786;7.840;2023-04-01T05:31:28;0.30;;;0.20;;
21806;SDS011;11065;50.786;7.840;2023-04-01T05:33:57;0.70;;;0.30;;
21806;SDS011;11065;50.786;7.840;2023-04-01T05:36:25;2.23;;;0.40;;
21806;SDS011;11065;50.786;7.840;2023-04-01T05:38:54;1.97;;;0.33;;
21806;SDS011;11065;50.786;7.840;2023-04-01T05:41:24;1.53;;;0.40;;
21806;SDS011;11065;50.786;7.840;2023-04-01T05:43:53;1.80;;;0.40;;
21806;SDS011;11065;50.786;7.840;2023-04-01T05:46:49;0.97;;;0.30;;
21806;SDS011;11065;50.786;7.840;2023-04-01T05:49:20;0.60;;;0.20;;
21806;SDS011;11065;50.786;7.840;2023-04-01T05:51:49;2.30;;;0.40;;
21806;SDS011;11065;50.786;7.840;2023-04-01T05:54:18;0.93;;;0.27;;
21806;SDS011;11065;50.786;7.840;2023-04-01T05:56:46;1.10;;;0.33;;
21806;SDS011;11065;50.786;7.840;2023-04-01T05:59:15;1.67;;;0.40;;
21806;SDS011;11065;50.786;7.840;2023-04-01T06:01:43;1.13;;;0.30;;
21806;SDS011;11065;50.786;7.840;2023-04-01T06:04:15;1.03;;;0.30;;
21806;SDS011;11065;50.786;7.840;2023-04-01T06:06:44;0.97;;;0.30;;
21806;SDS011;11065;50.786;7.840;2023-04-01T06:09:15;0.93;;;0.30;;
21806;SDS011;11065;50.786;7.840;2023-04-01T06:11:52;0.60;;;0.30;;
21806;SDS011;11065;50.786;7.840;2023-04-01T06:14:35;0.40;;;0.17;;
21806;SDS011;11065;50.786;7.840;2023-04-01T06:17:17;0.27;;;0.20;;
21806;SDS011;11065;50.786;7.840;2023-04-01T06:19:57;0.30;;;0.20;;
21806;SDS011;11065;50.786;7.840;2023-04-01T06:22:39;1.03;;;0.30;;
21806;SDS011;11065;50.786;7.840;2023-04-01T06:25:29;1.33;;;0.30;;
21806;SDS011;11065;50.786;7.840;2023-04-01T06:31:18;1.43;;;0.30;;
21806;SDS011;11065;50.786;7.840;2023-04-01T06:34:05;0.70;;;0.27;;
21806;SDS011;11065;50.786;7.840;2023-04-01T06:39:53;0.60;;;0.20;;
21806;SDS011;11065;50.786;7.840;2023-04-01T06:42:43;0.63;;;0.23;;
21806;SDS011;11065;50.786;7.840;2023-04-01T06:45:41;0.40;;;0.23;;
21806;SDS011;11065;50.786;7.840;2023-04-01T06:48:46;1.20;;;0.20;;
21806;SDS011;11065;50.786;7.840;2023-04-01T06:52:05;2.53;;;0.30;;
21806;SDS011;11065;50.786;7.840;2023-04-01T06:55:03;1.43;;;0.23;;
21806;SDS011;11065;50.786;7.840;2023-04-01T06:58:11;0.90;;;0.30;;
21806;SDS011;11065;50.786;7.840;2023-04-01T07:00:46;1.43;;;0.30;;
21806;SDS011;11065;50.786;7.840;2023-04-01T07:03:20;0.77;;;0.20;;
21806;SDS011;11065;50.786;7.840;2023-04-01T07:05:56;0.57;;;0.30;;
21806;SDS011;11065;50.786;7.840;2023-04-01T07:08:27;0.77;;;0.20;;
21806;SDS011;11065;50.786;7.840;2023-04-01T07:10:58;0.90;;;0.30;;
21806;SDS011;11065;50.786;7.840;2023-04-01T07:13:49;0.43;;;0.20;;
21806;SDS011;11065;50.786;7.840;2023-04-01T07:16:22;0.47;;;0.40;;
21806;SDS011;11065;50.786;7.840;2023-04-01T07:18:56;0.47;;;0.30;;
21806;SDS011;11065;50.786;7.840;2023-04-01T07:21:44;0.50;;;0.20;;
21806;SDS011;11065;50.786;7.840;2023-04-01T07:24:24;0.57;;;0.20;;
21806;SDS011;11065;50.786;7.840;2023-04-01T07:27:05;0.40;;;0.20;;
21806;SDS011;11065;50.786;7.840;2023-04-01T07:29:38;0.57;;;0.20;;
21806;SDS011;11065;50.786;7.840;2023-04-01T07:32:13;0.50;;;0.30;;
21806;SDS011;11065;50.786;7.840;2023-04-01T07:34:58;1.33;;;0.20;;
21806;SDS011;11065;50.786;7.840;2023-04-01T07:37:37;0.77;;;0.30;;
21806;SDS011;11065;50.786;7.840;2023-04-01T07:40:16;0.90;;;0.40;;
21806;SDS011;11065;50.786;7.840;2023-04-01T07:42:57;1.43;;;0.30;;
21806;SDS011;11065;50.786;7.840;2023-04-01T07:45:57;1.07;;;0.30;;
21806;SDS011;11065;50.786;7.840;2023-04-01T07:48:35;0.30;;;0.20;;
21806;SDS011;11065;50.786;7.840;2023-04-01T07:51:14;1.50;;;0.30;;
21806;SDS011;11065;50.786;7.840;2023-04-01T07:53:48;0.53;;;0.20;;
21806;SDS011;11065;50.786;7.840;2023-04-01T07:56:25;0.40;;;0.20;;
21806;SDS011;11065;50.786;7.840;2023-04-01T07:59:02;0.40;;;0.27;;
21806;SDS011;11065;50.786;7.840;2023-04-01T08:01:54;0.40;;;0.20;;
21806;SDS011;11065;50.786;7.840;2023-04-01T08:04:35;0.93;;;0.30;;
21806;SDS011;11065;50.786;7.840;2023-04-01T08:07:10;1.00;;;0.30;;
21806;SDS011;11065;50.786;7.840;2023-04-01T08:09:59;2.13;;;0.60;;
21806;SDS011;11065;50.786;7.840;2023-04-01T08:12:54;1.77;;;0.77;;
21806;SDS011;11065;50.786;7.840;2023-04-01T08:15:55;1.60;;;0.50;;
21806;SDS011;11065;50.786;7.840;2023-04-01T08:18:38;0.50;;;0.30;;
21806;SDS011;11065;50.786;7.840;2023-04-01T08:21:12;0.73;;;0.20;;
21806;SDS011;11065;50.786;7.840;2023-04-01T08:23:45;0.17;;;0.13;;
21806;SDS011;11065;50.786;7.840;2023-04-01T08:26:19;1.17;;;0.70;;
21806;SDS011;11065;50.786;7.840;2023-04-01T08:28:57;0.50;;;0.30;;
21806;SDS011;11065;50.786;7.840;2023-04-01T08:31:34;1.30;;;0.47;;
21806;SDS011;11065;50.786;7.840;2023-04-01T08:34:08;1.03;;;0.30;;
21806;SDS011;11065;50.786;7.840;2023-04-01T08:36:43;0.60;;;0.30;;
21806;SDS011;11065;50.786;7.840;2023-04-01T08:39:17;0.33;;;0.20;;
21806;SDS011;11065;50.786;7.840;2023-04-01T08:45:02;0.60;;;0.27;;
21806;SDS011;11065;50.786;7.840;2023-04-01T08:47:54;0.93;;;0.40;;
21806;SDS011;11065;50.786;7.840;2023-04-01T08:51:13;0.87;;;0.23;;
21806;SDS011;11065;50.786;7.840;2023-04-01T08:54:08;2.90;;;0.77;;
21806;SDS011;11065;50.786;7.840;2023-04-01T08:56:50;1.73;;;0.67;;
21806;SDS011;11065;50.786;7.840;2023-04-01T08:59:30;1.50;;;0.50;;
21806;SDS011;11065;50.786;7.840;2023-04-01T09:02:33;1.83;;;0.57;;
21806;SDS011;11065;50.786;7.840;2023-04-01T09:08:27;0.50;;;0.30;;
21806;SDS011;11065;50.786;7.840;2023-04-01T09:11:04;0.40;;;0.20;;
21806;SDS011;11065;50.786;7.840;2023-04-01T09:17:14;0.30;;;0.20;;
21806;SDS011;11065;50.786;7.840;2023-04-01T09:20:34;0.73;;;0.10;;
21806;SDS011;11065;50.786;7.840;2023-04-01T09:23:43;0.50;;;0.10;;
21806;SDS011;11065;50.786;7.840;2023-04-01T09:26:34;0.60;;;0.20;;
21806;SDS011;11065;50.786;7.840;2023-04-01T09:29:24;0.10;;;0.10;;
21806;SDS011;11065;50.786;7.840;2023-04-01T09:32:09;0.33;;;0.20;;
21806;SDS011;11065;50.786;7.840;2023-04-01T09:35:06;0.20;;;0.20;;
21806;SDS011;11065;50.786;7.840;2023-04-01T09:37:54;1.60;;;0.20;;
21806;SDS011;11065;50.786;7.840;2023-04-01T09:40:33;0.23;;;0.17;;
21806;SDS011;11065;50.786;7.840;2023-04-01T09:43:25;0.87;;;0.20;;
21806;SDS011;11065;50.786;7.840;2023-04-01T09:45:58;0.63;;;0.30;;
21806;SDS011;11065;50.786;7.840;2023-04-01T09:48:51;0.20;;;0.20;;
21806;SDS011;11065;50.786;7.840;2023-04-01T09:51:45;0.50;;;0.20;;
21806;SDS011;11065;50.786;7.840;2023-04-01T09:54:26;0.33;;;0.10;;
21806;SDS011;11065;50.786;7.840;2023-04-01T09:57:16;0.40;;;0.20;;
21806;SDS011;11065;50.786;7.840;2023-04-01T10:03:23;0.30;;;0.10;;
21806;SDS011;11065;50.786;7.840;2023-04-01T10:06:36;0.30;;;0.20;;
21806;SDS011;11065;50.786;7.840;2023-04-01T10:10:05;0.30;;;0.30;;
21806;SDS011;11065;50.786;7.840;2023-04-01T10:13:12;0.33;;;0.20;;
21806;SDS011;11065;50.786;7.840;2023-04-01T10:16:02;1.93;;;0.30;;
21806;SDS011;11065;50.786;7.840;2023-04-01T10:18:56;1.23;;;0.20;;
21806;SDS011;11065;50.786;7.840;2023-04-01T10:22:08;1.07;;;0.20;;
21806;SDS011;11065;50.786;7.840;2023-04-01T10:24:49;0.20;;;0.20;;
21806;SDS011;11065;50.786;7.840;2023-04-01T10:27:50;0.40;;;0.30;;
21806;SDS011;11065;50.786;7.840;2023-04-01T10:37:32;0.50;;;0.40;;
21806;SDS011;11065;50.786;7.840;2023-04-01T10:40:33;0.20;;;0.20;;
21806;SDS011;11065;50.786;7.840;2023-04-01T10:46:46;0.20;;;0.20;;
21806;SDS011;11065;50.786;7.840;2023-04-01T10:52:46;0.20;;;0.20;;
21806;SDS011;11065;50.786;7.840;2023-04-01T10:56:11;0.53;;;0.20;;
21806;SDS011;11065;50.786;7.840;2023-04-01T10:59:20;0.20;;;0.20;;
21806;SDS011;11065;50.786;7.840;2023-04-01T11:06:38;0.20;;;0.20;;
21806;SDS011;11065;50.786;7.840;2023-04-01T11:15:54;0.50;;;0.20;;
21806;SDS011;11065;50.786;7.840;2023-04-01T11:18:58;0.40;;;0.30;;
21806;SDS011;11065;50.786;7.840;2023-04-01T11:21:49;4.30;;;1.13;;
21806;SDS011;11065;50.786;7.840;2023-04-01T11:24:58;1.13;;;0.57;;
21806;SDS011;11065;50.786;7.840;2023-04-01T11:27:48;2.47;;;0.50;;
21806;SDS011;11065;50.786;7.840;2023-04-01T11:30:49;0.70;;;0.30;;
21806;SDS011;11065;50.786;7.840;2023-04-01T11:33:30;0.30;;;0.27;;
21806;SDS011;11065;50.786;7.840;2023-04-01T11:42:15;0.23;;;0.20;;
21806;SDS011;11065;50.786;7.840;2023-04-01T11:45:19;0.20;;;0.20;;
21806;SDS011;11065;50.786;7.840;2023-04-01T11:48:15;0.30;;;0.20;;
21806;SDS011;11065;50.786;7.840;2023-04-01T11:50:55;0.40;;;0.30;;
21806;SDS011;11065;50.786;7.840;2023-04-01T11:53:36;0.60;;;0.30;;
21806;SDS011;11065;50.786;7.840;2023-04-01T11:56:19;0.40;;;0.30;;
21806;SDS011;11065;50.786;7.840;2023-04-01T12:02:20;0.30;;;0.20;;
21806;SDS011;11065;50.786;7.840;2023-04-01T12:08:09;0.57;;;0.43;;
21806;SDS011;11065;50.786;7.840;2023-04-01T12:10:49;1.20;;;0.50;;
21806;SDS011;11065;50.786;7.840;2023-04-01T12:13:26;1.93;;;0.40;;
21806;SDS011;11065;50.786;7.840;2023-04-01T12:16:15;1.77;;;0.50;;
21806;SDS011;11065;50.786;7.840;2023-04-01T12:18:59;0.83;;;0.50;;
21806;SDS011;11065;50.786;7.840;2023-04-01T12:21:34;1.23;;;0.70;;
21806;SDS011;11065;50.786;7.840;2023-04-01T12:24:14;1.30;;;0.80;;
21806;SDS011;11065;50.786;7.840;2023-04-01T12:27:07;0.80;;;0.70;;
21806;SDS011;11065;50.786;7.840;2023-04-01T12:29:58;2.43;;;0.70;;
21806;SDS011;11065;50.786;7.840;2023-04-01T12:32:38;0.83;;;0.67;;
21806;SDS011;11065;50.786;7.840;2023-04-01T12:35:17;0.67;;;0.50;;
21806;SDS011;11065;50.786;7.840;2023-04-01T12:37:52;2.33;;;0.60;;
21806;SDS011;11065;50.786;7.840;2023-04-01T12:43:25;1.03;;;0.60;;
21806;SDS011;11065;50.786;7.840;2023-04-01T12:46:03;0.50;;;0.40;;
21806;SDS011;11065;50.786;7.840;2023-04-01T12:49:00;1.00;;;0.50;;
21806;SDS011;11065;50.786;7.840;2023-04-01T12:51:46;0.40;;;0.40;;
21806;SDS011;11065;50.786;7.840;2023-04-01T13:00:30;1.23;;;0.40;;
21806;SDS011;11065;50.786;7.840;2023-04-01T13:03:31;0.53;;;0.30;;
21806;SDS011;11065;50.786;7.840;2023-04-01T13:06:19;0.57;;;0.57;;
21806;SDS011;11065;50.786;7.840;2023-04-01T13:08:58;0.60;;;0.40;;
21806;SDS011;11065;50.786;7.840;2023-04-01T13:11:41;0.53;;;0.47;;
21806;SDS011;11065;50.786;7.840;2023-04-01T13:14:19;0.70;;;0.40;;
21806;SDS011;11065;50.786;7.840;2023-04-01T13:17:00;1.20;;;0.50;;
21806;SDS011;11065;50.786;7.840;2023-04-01T13:19:38;0.90;;;0.50;;
21806;SDS011;11065;50.786;7.840;2023-04-01T13:22:29;0.57;;;0.43;;
21806;SDS011;11065;50.786;7.840;2023-04-01T13:25:09;0.90;;;0.50;;
21806;SDS011;11065;50.786;7.840;2023-04-01T13:27:47;0.77;;;0.43;;
21806;SDS011;11065;50.786;7.840;2023-04-01T13:30:22;1.00;;;0.60;;
21806;SDS011;11065;50.786;7.840;2023-04-01T13:32:55;0.50;;;0.47;;
21806;SDS011;11065;50.786;7.840;2023-04-01T13:35:35;1.20;;;0.60;;
21806;SDS011;11065;50.786;7.840;2023-04-01T13:38:16;1.17;;;0.80;;
21806;SDS011;11065;50.786;7.840;2023-04-01T13:41:05;0.70;;;0.50;;
21806;SDS011;11065;50.786;7.840;2023-04-01T13:43:42;2.50;;;0.90;;
21806;SDS011;11065;50.786;7.840;2023-04-01T13:46:19;0.90;;;0.60;;
21806;SDS011;11065;50.786;7.840;2023-04-01T13:49:05;1.13;;;0.70;;
21806;SDS011;11065;50.786;7.840;2023-04-01T13:51:55;1.20;;;0.90;;
21806;SDS011;11065;50.786;7.840;2023-04-01T13:57:40;2.00;;;0.70;;
21806;SDS011;11065;50.786;7.840;2023-04-01T14:00:31;1.13;;;0.60;;
21806;SDS011;11065;50.786;7.840;2023-04-01T14:03:13;0.53;;;0.40;;
21806;SDS011;11065;50.786;7.840;2023-04-01T14:05:57;1.20;;;0.80;;
21806;SDS011;11065;50.786;7.840;2023-04-01T14:08:42;5.13;;;2.00;;
21806;SDS011;11065;50.786;7.840;2023-04-01T14:11:25;3.27;;;1.57;;
21806;SDS011;11065;50.786;7.840;2023-04-01T14:14:01;3.13;;;1.73;;
21806;SDS011;11065;50.786;7.840;2023-04-01T14:16:51;2.90;;;1.27;;
21806;SDS011;11065;50.786;7.840;2023-04-01T14:19:34;2.27;;;0.97;;
21806;SDS011;11065;50.786;7.840;2023-04-01T14:22:19;1.40;;;0.83;;
21806;SDS011;11065;50.786;7.840;2023-04-01T14:25:01;1.40;;;0.80;;
21806;SDS011;11065;50.786;7.840;2023-04-01T14:27:51;2.40;;;1.07;;
21806;SDS011;11065;50.786;7.840;2023-04-01T14:30:35;1.20;;;0.80;;
21806;SDS011;11065;50.786;7.840;2023-04-01T14:33:15;1.27;;;0.60;;
21806;SDS011;11065;50.786;7.840;2023-04-01T14:35:56;0.77;;;0.60;;
21806;SDS011;11065;50.786;7.840;2023-04-01T14:38:51;0.70;;;0.40;;
21806;SDS011;11065;50.786;7.840;2023-04-01T14:41:30;0.60;;;0.50;;
21806;SDS011;11065;50.786;7.840;2023-04-01T14:50:13;0.37;;;0.37;;
21806;SDS011;11065;50.786;7.840;2023-04-01T14:52:44;0.57;;;0.37;;
21806;SDS011;11065;50.786;7.840;2023-04-01T14:55:21;0.40;;;0.30;;
21806;SDS011;11065;50.786;7.840;2023-04-01T14:58:08;1.23;;;0.87;;
21806;SDS011;11065;50.786;7.840;2023-04-01T15:00:41;0.80;;;0.60;;
21806;SDS011;11065;50.786;7.840;2023-04-01T15:03:19;0.63;;;0.40;;
21806;SDS011;11065;50.786;7.840;2023-04-01T15:05:56;0.30;;;0.30;;
21806;SDS011;11065;50.786;7.840;2023-04-01T15:08:43;1.03;;;0.57;;
21806;SDS011;11065;50.786;7.840;2023-04-01T15:11:26;0.90;;;0.70;;
21806;SDS011;11065;50.786;7.840;2023-04-01T15:17:03;1.07;;;0.87;;
21806;SDS011;11065;50.786;7.840;2023-04-01T15:19:48;1.87;;;0.70;;
21806;SDS011;11065;50.786;7.840;2023-04-01T15:22:32;0.60;;;0.60;;
21806;SDS011;11065;50.786;7.840;2023-04-01T15:25:16;2.30;;;1.00;;
21806;SDS011;11065;50.786;7.840;2023-04-01T15:27:55;1.07;;;0.70;;
21806;SDS011;11065;50.786;7.840;2023-04-01T15:30:32;0.90;;;0.60;;
21806;SDS011;11065;50.786;7.840;2023-04-01T15:33:09;1.00;;;0.90;;
21806;SDS011;11065;50.786;7.840;2023-04-01T15:35:57;1.10;;;0.70;;
21806;SDS011;11065;50.786;7.840;2023-04-01T15:38:36;2.30;;;0.83;;
21806;SDS011;11065;50.786;7.840;2023-04-01T15:41:12;0.80;;;0.70;;
21806;SDS011;11065;50.786;7.840;2023-04-01T15:43:43;1.40;;;1.10;;
21806;SDS011;11065;50.786;7.840;2023-04-01T15:46:27;2.80;;;1.73;;
21806;SDS011;11065;50.786;7.840;2023-04-01T15:49:10;1.90;;;1.30;;
21806;SDS011;11065;50.786;7.840;2023-04-01T15:51:48;1.30;;;0.90;;
21806;SDS011;11065;50.786;7.840;2023-04-01T15:54:25;1.40;;;0.87;;
21806;SDS011;11065;50.786;7.840;2023-04-01T15:57:11;1.40;;;0.80;;
21806;SDS011;11065;50.786;7.840;2023-04-01T16:02:48;1.87;;;0.90;;
21806;SDS011;11065;50.786;7.840;2023-04-01T16:05:24;1.20;;;0.80;;
21806;SDS011;11065;50.786;7.840;2023-04-01T16:08:06;1.00;;;0.80;;
21806;SDS011;11065;50.786;7.840;2023-04-01T16:10:52;0.80;;;0.70;;
21806;SDS011;11065;50.786;7.840;2023-04-01T16:13:32;0.83;;;0.60;;
21806;SDS011;11065;50.786;7.840;2023-04-01T16:16:16;1.40;;;0.80;;
21806;SDS011;11065;50.786;7.840;2023-04-01T16:18:57;2.03;;;1.13;;
21806;SDS011;11065;50.786;7.840;2023-04-01T16:21:52;2.03;;;1.40;;
21806;SDS011;11065;50.786;7.840;2023-04-01T16:24:30;1.57;;;0.97;;
21806;SDS011;11065;50.786;7.840;2023-04-01T16:27:04;1.17;;;0.83;;
21806;SDS011;11065;50.786;7.840;2023-04-01T16:29:39;1.30;;;0.70;;
21806;SDS011;11065;50.786;7.840;2023-04-01T16:32:34;1.33;;;1.17;;
21806;SDS011;11065;50.786;7.840;2023-04-01T16:35:15;1.27;;;1.00;;
21806;SDS011;11065;50.786;7.840;2023-04-01T16:37:54;1.03;;;0.83;;
21806;SDS011;11065;50.786;7.840;2023-04-01T16:40:34;1.67;;;0.70;;
21806;SDS011;11065;50.786;7.840;2023-04-01T16:43:12;1.70;;;1.00;;
21806;SDS011;11065;50.786;7.840;2023-04-01T16:45:47;1.70;;;1.10;;
21806;SDS011;11065;50.786;7.840;2023-04-01T16:48:27;1.80;;;0.80;;
21806;SDS011;11065;50.786;7.840;2023-04-01T16:51:04;1.43;;;0.90;;
21806;SDS011;11065;50.786;7.840;2023-04-01T16:53:41;1.33;;;0.80;;
21806;SDS011;11065;50.786;7.840;2023-04-01T16:56:12;1.53;;;0.90;;
21806;SDS011;11065;50.786;7.840;2023-04-01T16:58:54;1.10;;;0.73;;
21806;SDS011;11065;50.786;7.840;2023-04-01T17:01:28;0.83;;;0.70;;
21806;SDS011;11065;50.786;7.840;2023-04-01T17:04:04;1.27;;;1.03;;
21806;SDS011;11065;50.786;7.840;2023-04-01T17:06:43;2.23;;;1.20;;
21806;SDS011;11065;50.786;7.840;2023-04-01T17:09:20;2.20;;;0.90;;
21806;SDS011;11065;50.786;7.840;2023-04-01T17:12:01;1.17;;;0.80;;
21806;SDS011;11065;50.786;7.840;2023-04-01T17:14:39;1.47;;;0.90;;
21806;SDS011;11065;50.786;7.840;2023-04-01T17:17:17;2.27;;;1.10;;
21806;SDS011;11065;50.786;7.840;2023-04-01T17:20:01;1.57;;;1.00;;